CheckWX is a tool to help pilots better visualize weather data.  It is not intended as a substitute for an official pre-flight weather briefing.

00:36:56 UTC

HSPN METAR
Port Sudan New International Airport
Port Sudan, Sudan
Current

2 hours ago

HSPN 262300Z 04005KT CAVOK 23/15 Q1016
Observed
Mar-26 @ 23:00 UTC
Wind
  • 040° at 5 KTS
Visibility
10,000+ meters
Flight Rules
VFR
Cloud Levels
  • Clear skies
Temperature
23°C / 73°F
Dewpoint
15°C / 59°F
Humidity
61%
Altimeter
30" Hg
Pressure
1015.92 hPa
Previous

5 hours ago

HSPN 262000Z 36006KT CAVOK 24/15 Q1017
Observed
Mar-26 @ 20:00 UTC
Wind
  • 360° at 6 KTS
Visibility
10,000+ meters
Flight Rules
VFR
Cloud Levels
  • Clear skies
Temperature
24°C / 75°F
Dewpoint
15°C / 59°F
Humidity
57%
Altimeter
30.03" Hg
Pressure
1016.92 hPa
Previous

6 hours ago

HSPN 261900Z 36006KT CAVOK 24/15 Q1017
Observed
Mar-26 @ 19:00 UTC
Wind
  • 360° at 6 KTS
Visibility
10,000+ meters
Flight Rules
VFR
Cloud Levels
  • Clear skies
Temperature
24°C / 75°F
Dewpoint
15°C / 59°F
Humidity
57%
Altimeter
30.03" Hg
Pressure
1016.92 hPa